Aeroporto :
LOGIN :

Iscrizione | Disclaimer

   EN    FR    IT 

 










Sommario :    VFR   VFR Marginale   IFR   IFR Intensivo   IFR Molto Intensivo
Visibilità : 
Base nubi : 
>= 8 km
>= 3000ft
5 / 8 km
1000 / 3000 ft
1500m / 5 km
500 / 1000 ft
800 / 1500m
200 / 500 ft
< 800m
< 200 ft
Simboli :   Temporali  Nebbia  Neve Forte  Precipitazioni Forti  Vento > 20 kt
SIGMETs :   Varie  Temporali  Ghiacco  Turbolenza  Onda orograficha  Ceneri Vulcaniche






- Altitudine del aeroporto : 33 ft
- Codice IATA : MHZ


EGUN - RAF Mildenhall

ULTIMO METAR :
  • 260416Z 16010KT 5000 BR CLR 06/05 A2986 RMK SLPNO WND DATA ESTMD ALTSG ESTMD RVRNO $

METARs OBSOLETI :
  • 260300Z 16008KT 5000 BR OVC021 07/05 A2989 RMK SLPNO WND DATA ESTMD ALTSG ESTMD RVRNO $
  • 260200Z 15007KT 5000 BR BKN006 06/05 A2991 RMK SLPNO WND DATA ESTMD ALTSG ESTMD RVRNO $

TAF TAF EGUN
Valido dal 26 a 04 ore il 27 a 10 ore UTC


260400Z 2604/2710 19012KT 5000 BR OVC020 QNH2982INS
BECMG 2608/2609 19012G20KT 9999 NSW SCT020 QNH2966INS
BECMG 2617/2618 20012KT 8000 -SHRA SCT020 QNH2964INS
BECMG 2702/2703 22012G20KT 8000 BR OVC015 QNH2958INS TX10/2614Z TN03/2704Z



MetMap, La meteo Aeronautica in un colpo d'occhio ! - Copyright ORBIFLY Dicembre 2007 - Disclaimer

ORBIFLY MET'MAP TEAM :

Programmazione e sviluppo : Alexandra Zaïnal
Concezione : Baudouin d'Aumeries
Aiuto per la programmazione : Marc-Olivier Méhu
Supporto tecnico e logistico : Manuel Goepfert
Aiuto per la traduzione : Arnaldo La Scala

Contatto : metmap@orbifly.com




FONTI E CREDITI :

   NOAA